Time;durP1;ratioP1;P1;durP2;ratioP2;P2;SDS_P1;SDS_P2;PMS_P1;PMS_P2;Temp;Humidity;BMP_temperature;BMP_pressure;BME280_temperature;BME280_humidity;BME280_pressure;Samples;Min_cycle;Max_cycle;Signal;HPM_P1;HPM_P2
2022/08/14 00:00:52;;;;;;;5.93;3.47;;;;;;;;;;5061410;28;20455;-76
2022/08/14 00:03:23;;;;;;;4.72;3.20;;;;;;;;;;5058516;28;20078;-77
2022/08/14 00:05:49;;;;;;;4.03;3.35;;;;;;;;;;5072014;28;20028;-76
2022/08/14 00:08:15;;;;;;;5.38;3.45;;;;;;;;;;5062109;28;20024;-74
2022/08/14 00:10:41;;;;;;;4.10;3.40;;;;;;;;;;5062632;28;20116;-81
2022/08/14 00:13:07;;;;;;;4.43;3.20;;;;;;;;;;5059505;28;20111;-82
2022/08/14 00:15:35;;;;;;;4.85;3.30;;;;;;;;;;5066115;28;20068;-81
2022/08/14 00:18:02;;;;;;;5.45;3.60;;;;;;;;;;5064322;28;20036;-76
2022/08/14 00:20:30;;;;;;;4.70;3.53;;;;;;;;;;5059443;28;20051;-76
2022/08/14 00:22:56;;;;;;;5.15;3.28;;;;;;;;;;5062145;28;20028;-73
2022/08/14 00:25:22;;;;;;;4.28;3.35;;;;;;;;;;5066369;28;20033;-81
2022/08/14 00:27:47;;;;;;;5.18;3.20;;;;;;;;;;5065850;28;20070;-78
2022/08/14 00:30:14;;;;;;;5.38;3.35;;;;;;;;;;5062621;28;20077;-78
2022/08/14 00:32:41;;;;;;;4.90;3.30;;;;;;;;;;5070813;28;20032;-78
2022/08/14 00:35:08;;;;;;;5.53;3.70;;;;;;;;;;5067467;28;20048;-75
2022/08/14 00:37:33;;;;;;;5.20;3.60;;;;;;;;;;5066929;28;20448;-76
2022/08/14 00:40:00;;;;;;;4.35;3.55;;;;;;;;;;5062164;28;20074;-76
2022/08/14 00:42:27;;;;;;;5.72;3.47;;;;;;;;;;5062780;28;20078;-78
2022/08/14 00:44:54;;;;;;;3.60;3.10;;;;;;;;;;5059807;28;20035;-74
2022/08/14 00:47:23;;;;;;;4.35;3.58;;;;;;;;;;5057328;28;20032;-82
2022/08/14 00:49:50;;;;;;;4.93;3.40;;;;;;;;;;5061974;28;20473;-75
2022/08/14 00:52:16;;;;;;;5.28;3.30;;;;;;;;;;5063763;28;20028;-78
2022/08/14 00:54:42;;;;;;;4.60;3.50;;;;;;;;;;5060020;28;20029;-81
2022/08/14 00:57:09;;;;;;;6.32;3.90;;;;;;;;;;5064949;28;20020;-81
2022/08/14 00:59:35;;;;;;;4.80;3.72;;;;;;;;;;5065095;28;20442;-74
2022/08/14 01:02:01;;;;;;;4.68;3.80;;;;;;;;;;5065021;28;20059;-77
2022/08/14 01:04:30;;;;;;;4.60;3.38;;;;;;;;;;5064598;28;20479;-80
2022/08/14 01:06:57;;;;;;;5.40;4.25;;;;;;;;;;5064384;28;20059;-81
2022/08/14 01:09:23;;;;;;;4.95;3.50;;;;;;;;;;5065747;28;20479;-78
2022/08/14 01:11:49;;;;;;;4.80;3.90;;;;;;;;;;5068109;28;20033;-77
2022/08/14 01:14:16;;;;;;;5.10;4.00;;;;;;;;;;5069834;28;20035;-81
2022/08/14 01:16:42;;;;;;;5.30;3.78;;;;;;;;;;5060976;28;20024;-76
2022/08/14 01:21:51;;;;;;;4.85;3.90;;;;;;;;;;5061587;28;20043;-78
2022/08/14 01:24:20;;;;;;;5.97;3.92;;;;;;;;;;5056829;28;20032;-76
2022/08/14 01:26:45;;;;;;;6.60;4.25;;;;;;;;;;5059217;28;20118;-77
2022/08/14 01:29:12;;;;;;;4.88;3.63;;;;;;;;;;5062069;28;20123;-77
2022/08/14 01:31:51;;;;;;;7.80;4.30;;;;;;;;;;5059144;28;20032;-75
2022/08/14 01:34:19;;;;;;;6.68;4.22;;;;;;;;;;5062618;28;20505;-77
2022/08/14 01:36:45;;;;;;;5.82;4.13;;;;;;;;;;5066656;28;20097;-74
2022/08/14 01:39:13;;;;;;;5.05;4.00;;;;;;;;;;5066906;28;20150;-80
2022/08/14 01:41:40;;;;;;;5.53;4.32;;;;;;;;;;5067771;28;20016;-76
2022/08/14 01:44:11;;;;;;;6.07;4.28;;;;;;;;;;5060341;28;20016;-81
2022/08/14 01:46:39;;;;;;;5.55;4.03;;;;;;;;;;5056568;28;20033;-77
2022/08/14 01:49:08;;;;;;;7.30;4.30;;;;;;;;;;5063562;28;20039;-79
2022/08/14 01:51:35;;;;;;;5.20;4.13;;;;;;;;;;5064131;28;20388;-78
2022/08/14 01:54:08;;;;;;;6.15;4.25;;;;;;;;;;5066699;28;20029;-75
2022/08/14 01:56:38;;;;;;;6.57;4.40;;;;;;;;;;5054600;28;20141;-77
2022/08/14 01:59:20;;;;;;;5.22;4.07;;;;;;;;;;5065607;28;20039;-80
2022/08/14 02:01:50;;;;;;;6.10;4.15;;;;;;;;;;5060730;28;20031;-75
2022/08/14 02:04:20;;;;;;;5.70;3.67;;;;;;;;;;5059836;28;20092;-76
2022/08/14 02:06:48;;;;;;;5.65;4.18;;;;;;;;;;5059698;28;20074;-80
2022/08/14 02:09:13;;;;;;;5.35;3.97;;;;;;;;;;5064295;28;20381;-77
2022/08/14 02:11:39;;;;;;;5.63;4.10;;;;;;;;;;5064311;28;20027;-76
2022/08/14 02:14:07;;;;;;;5.95;4.00;;;;;;;;;;5063422;28;20488;-81
2022/08/14 02:16:45;;;;;;;5.57;3.88;;;;;;;;;;5055973;28;20481;-76
2022/08/14 02:19:16;;;;;;;4.80;3.88;;;;;;;;;;5062108;28;20036;-77
2022/08/14 02:21:44;;;;;;;5.75;4.40;;;;;;;;;;5061732;28;20480;-77
2022/08/14 02:24:10;;;;;;;5.57;4.05;;;;;;;;;;5065333;28;20111;-76
2022/08/14 02:26:38;;;;;;;5.20;3.90;;;;;;;;;;5060684;28;20401;-74
2022/08/14 02:29:14;;;;;;;4.68;3.95;;;;;;;;;;5064757;28;20024;-75
2022/08/14 02:31:42;;;;;;;6.38;4.05;;;;;;;;;;5062747;28;21527;-76
2022/08/14 02:34:18;;;;;;;6.03;4.00;;;;;;;;;;5060734;28;20036;-77
2022/08/14 02:36:46;;;;;;;4.85;4.10;;;;;;;;;;5073320;28;20028;-76
2022/08/14 02:39:12;;;;;;;5.20;4.45;;;;;;;;;;5059979;28;20565;-77
2022/08/14 02:41:38;;;;;;;5.60;4.60;;;;;;;;;;5059187;28;20372;-77
2022/08/14 02:44:06;;;;;;;5.65;4.30;;;;;;;;;;5063317;28;20607;-80
2022/08/14 02:46:32;;;;;;;6.97;4.45;;;;;;;;;;5068288;28;20380;-76
2022/08/14 02:48:58;;;;;;;5.43;4.63;;;;;;;;;;5070517;28;20033;-75
2022/08/14 02:51:24;;;;;;;5.25;4.57;;;;;;;;;;5067265;28;20543;-77
2022/08/14 02:53:49;;;;;;;5.15;4.10;;;;;;;;;;5067397;28;20028;-77
2022/08/14 02:56:18;;;;;;;7.80;4.50;;;;;;;;;;5065854;28;20024;-74
2022/08/14 02:58:46;;;;;;;5.53;4.43;;;;;;;;;;5067391;28;20016;-75
2022/08/14 03:01:13;;;;;;;6.22;4.45;;;;;;;;;;5064419;28;20477;-74
2022/08/14 03:03:38;;;;;;;5.57;4.00;;;;;;;;;;5065330;28;20035;-76
2022/08/14 03:06:05;;;;;;;5.80;4.40;;;;;;;;;;5071947;28;20028;-77
2022/08/14 03:08:32;;;;;;;6.10;4.70;;;;;;;;;;5064342;28;20024;-76
2022/08/14 03:11:00;;;;;;;7.05;4.68;;;;;;;;;;5072787;28;20127;-81
2022/08/14 03:13:26;;;;;;;5.05;4.47;;;;;;;;;;5066853;28;20035;-75
2022/08/14 03:15:52;;;;;;;7.18;4.47;;;;;;;;;;5062653;28;20028;-78
2022/08/14 03:18:20;;;;;;;5.63;4.40;;;;;;;;;;5063101;28;20141;-81
2022/08/14 03:20:46;;;;;;;4.95;4.10;;;;;;;;;;5063370;28;20036;-77
2022/08/14 03:23:13;;;;;;;5.20;3.97;;;;;;;;;;5061179;28;20055;-79
2022/08/14 03:25:39;;;;;;;5.63;4.47;;;;;;;;;;5064164;28;20028;-79
2022/08/14 03:28:06;;;;;;;6.22;4.68;;;;;;;;;;5060179;28;20116;-81
2022/08/14 03:30:34;;;;;;;5.25;3.95;;;;;;;;;;5064787;28;20039;-79
2022/08/14 03:33:00;;;;;;;5.60;4.40;;;;;;;;;;5064986;28;20458;-75
2022/08/14 03:35:25;;;;;;;5.50;4.43;;;;;;;;;;5066822;28;20076;-77
2022/08/14 03:37:51;;;;;;;5.00;4.10;;;;;;;;;;5068415;28;20108;-76
2022/08/14 03:40:21;;;;;;;5.15;4.03;;;;;;;;;;5065812;28;20048;-77
2022/08/14 03:42:50;;;;;;;5.93;4.20;;;;;;;;;;5060503;28;20029;-76
2022/08/14 03:45:15;;;;;;;6.75;4.38;;;;;;;;;;5066898;28;20024;-76
2022/08/14 03:47:41;;;;;;;6.05;4.28;;;;;;;;;;5065586;28;20117;-77
2022/08/14 03:50:09;;;;;;;7.03;4.10;;;;;;;;;;5042322;28;20131;-75
2022/08/14 03:52:38;;;;;;;5.20;4.30;;;;;;;;;;5066108;28;20060;-76
2022/08/14 03:55:06;;;;;;;5.45;4.20;;;;;;;;;;5058226;28;20032;-76
2022/08/14 03:57:34;;;;;;;5.72;4.32;;;;;;;;;;5069053;28;20039;-76
2022/08/14 04:00:07;;;;;;;5.80;4.07;;;;;;;;;;5057016;28;20029;-81
2022/08/14 04:02:33;;;;;;;5.63;4.28;;;;;;;;;;5065155;28;20036;-78
2022/08/14 04:04:59;;;;;;;7.03;4.70;;;;;;;;;;5062071;28;20033;-74
2022/08/14 04:07:24;;;;;;;5.90;4.10;;;;;;;;;;5070787;28;20032;-77
2022/08/14 04:09:50;;;;;;;7.25;4.65;;;;;;;;;;5067718;28;20538;-80
2022/08/14 04:12:18;;;;;;;7.78;4.82;;;;;;;;;;5067872;28;20108;-75
2022/08/14 04:14:44;;;;;;;6.25;4.47;;;;;;;;;;5056162;28;20112;-76
2022/08/14 04:17:10;;;;;;;6.00;4.55;;;;;;;;;;5061935;28;20066;-76
2022/08/14 04:19:36;;;;;;;6.93;4.63;;;;;;;;;;5059057;28;20079;-76
2022/08/14 04:22:02;;;;;;;6.10;4.80;;;;;;;;;;5065837;28;20031;-77
2022/08/14 04:24:28;;;;;;;6.38;4.32;;;;;;;;;;5067329;28;20028;-77
2022/08/14 04:26:53;;;;;;;7.53;4.70;;;;;;;;;;5062048;28;20074;-74
2022/08/14 04:29:19;;;;;;;5.45;4.93;;;;;;;;;;5068287;28;20581;-76
2022/08/14 04:31:45;;;;;;;6.10;4.60;;;;;;;;;;5062473;28;20028;-81
2022/08/14 04:34:11;;;;;;;6.93;4.70;;;;;;;;;;5061252;28;20045;-75
2022/08/14 04:43:34;;;;;;;6.18;4.70;;;;;;;;;;5057829;28;20032;-81
2022/08/14 04:44:51;;;;;;;5.68;4.97;;;;;;;;;;5063378;28;20162;-73
2022/08/14 04:50:02;;;;;;;7.30;5.20;;;;;;;;;;5072370;28;20050;-73
2022/08/14 04:52:28;;;;;;;6.68;4.47;;;;;;;;;;5067737;28;20028;-75
2022/08/14 04:54:53;;;;;;;6.50;4.60;;;;;;;;;;5059946;28;20146;-81
2022/08/14 04:57:18;;;;;;;6.97;5.25;;;;;;;;;;5065283;28;20040;-76
2022/08/14 04:59:44;;;;;;;6.75;5.15;;;;;;;;;;5062836;28;20112;-80
2022/08/14 05:02:09;;;;;;;6.20;5.13;;;;;;;;;;5066463;28;20024;-76
2022/08/14 05:04:35;;;;;;;6.00;4.82;;;;;;;;;;5054848;28;20021;-77
2022/08/14 05:07:00;;;;;;;6.82;4.95;;;;;;;;;;5060189;28;20238;-81
2022/08/14 05:09:26;;;;;;;5.72;4.82;;;;;;;;;;5059409;28;20055;-76
2022/08/14 05:11:51;;;;;;;6.15;4.82;;;;;;;;;;5059141;28;20046;-80
2022/08/14 05:14:21;;;;;;;7.00;5.30;;;;;;;;;;5058419;28;20060;-75
2022/08/14 05:16:47;;;;;;;6.85;4.95;;;;;;;;;;5062812;28;20024;-77
2022/08/14 05:19:13;;;;;;;6.60;4.90;;;;;;;;;;5064233;28;20032;-77
2022/08/14 05:21:40;;;;;;;8.13;5.32;;;;;;;;;;5063433;28;20067;-76
2022/08/14 05:24:06;;;;;;;5.70;5.05;;;;;;;;;;5052042;28;20024;-74
2022/08/14 05:26:31;;;;;;;7.90;5.35;;;;;;;;;;5066399;28;20500;-77
2022/08/14 05:28:56;;;;;;;5.72;4.85;;;;;;;;;;5068207;28;20435;-76
2022/08/14 05:31:22;;;;;;;8.50;5.97;;;;;;;;;;5062179;28;20028;-74
2022/08/14 05:33:52;;;;;;;7.57;5.40;;;;;;;;;;5067808;28;20067;-74
2022/08/14 05:36:18;;;;;;;6.90;5.07;;;;;;;;;;5064009;28;20356;-80
2022/08/14 05:38:46;;;;;;;5.75;4.95;;;;;;;;;;5065436;28;20035;-81
2022/08/14 05:41:17;;;;;;;7.03;5.55;;;;;;;;;;5059913;28;20461;-81
2022/08/14 05:43:46;;;;;;;6.03;5.40;;;;;;;;;;5064965;28;20028;-78
2022/08/14 05:46:14;;;;;;;7.75;5.30;;;;;;;;;;5070237;28;20078;-74
2022/08/14 05:48:39;;;;;;;6.43;5.63;;;;;;;;;;5068350;28;20054;-79
2022/08/14 05:51:05;;;;;;;7.25;5.38;;;;;;;;;;5066021;28;20032;-74
2022/08/14 05:53:31;;;;;;;8.65;5.50;;;;;;;;;;5070824;28;20032;-74
2022/08/14 05:55:57;;;;;;;6.78;5.57;;;;;;;;;;5064506;28;20484;-79
2022/08/14 05:58:23;;;;;;;8.23;5.90;;;;;;;;;;5056914;28;20032;-76
2022/08/14 06:00:50;;;;;;;6.18;5.47;;;;;;;;;;5067363;28;20032;-77
2022/08/14 06:03:18;;;;;;;8.30;6.15;;;;;;;;;;5061799;28;20038;-78
2022/08/14 06:05:45;;;;;;;8.27;5.83;;;;;;;;;;5064673;28;20143;-76
2022/08/14 06:08:20;;;;;;;6.55;5.32;;;;;;;;;;5065529;28;20236;-77
2022/08/14 06:10:46;;;;;;;7.70;6.50;;;;;;;;;;5063863;28;20052;-77
2022/08/14 06:13:13;;;;;;;6.68;5.47;;;;;;;;;;5055231;28;20035;-80
2022/08/14 06:15:38;;;;;;;8.55;6.20;;;;;;;;;;5065963;28;20085;-74
2022/08/14 06:18:04;;;;;;;9.43;6.85;;;;;;;;;;5062447;28;20028;-77
2022/08/14 06:20:29;;;;;;;7.57;6.30;;;;;;;;;;5064385;28;20033;-76
2022/08/14 06:22:55;;;;;;;8.90;6.82;;;;;;;;;;5065206;28;20504;-81
2022/08/14 06:25:20;;;;;;;8.10;7.05;;;;;;;;;;5065435;28;20389;-75
2022/08/14 06:27:48;;;;;;;7.72;6.40;;;;;;;;;;5070458;28;20052;-76
2022/08/14 06:30:31;;;;;;;8.23;6.15;;;;;;;;;;5068917;28;20044;-80
2022/08/14 06:32:56;;;;;;;8.52;6.65;;;;;;;;;;5065213;28;20070;-76
2022/08/14 06:35:22;;;;;;;8.65;6.88;;;;;;;;;;5072398;28;20048;-81
2022/08/14 06:37:54;;;;;;;9.48;7.15;;;;;;;;;;5067556;28;20043;-81
2022/08/14 06:40:34;;;;;;;9.47;6.80;;;;;;;;;;5061363;28;20365;-76
2022/08/14 06:43:05;;;;;;;8.40;6.22;;;;;;;;;;5071006;28;20111;-75
2022/08/14 06:45:32;;;;;;;8.15;7.35;;;;;;;;;;5074042;28;20032;-76
2022/08/14 06:47:59;;;;;;;8.27;6.45;;;;;;;;;;5077882;28;20388;-81
2022/08/14 06:50:26;;;;;;;9.07;6.88;;;;;;;;;;5072263;28;20051;-76
2022/08/14 06:52:52;;;;;;;7.35;6.40;;;;;;;;;;5067096;28;20664;-74
2022/08/14 06:55:18;;;;;;;8.23;6.90;;;;;;;;;;5072116;28;20029;-76
2022/08/14 06:57:46;;;;;;;11.65;7.13;;;;;;;;;;5071967;28;20024;-81
2022/08/14 07:00:17;;;;;;;9.05;6.28;;;;;;;;;;5065533;28;20020;-76
2022/08/14 07:05:45;;;;;;;8.75;7.00;;;;;;;;;;5067315;28;20072;-76
2022/08/14 07:08:15;;;;;;;8.15;7.03;;;;;;;;;;5068559;28;20510;-76
2022/08/14 07:10:42;;;;;;;8.00;7.15;;;;;;;;;;5071955;28;20055;-77
2022/08/14 07:13:09;;;;;;;10.50;7.15;;;;;;;;;;5067565;28;20043;-76
2022/08/14 07:15:34;;;;;;;9.00;6.18;;;;;;;;;;5071734;28;20033;-76
2022/08/14 07:18:02;;;;;;;7.32;6.03;;;;;;;;;;5064431;28;20020;-77
2022/08/14 07:20:28;;;;;;;7.55;5.82;;;;;;;;;;5070491;28;20115;-76
2022/08/14 07:22:59;;;;;;;7.70;5.88;;;;;;;;;;5069293;28;20103;-76
2022/08/14 07:25:24;;;;;;;7.43;5.68;;;;;;;;;;5068985;28;20132;-76
2022/08/14 07:27:50;;;;;;;9.68;6.63;;;;;;;;;;5070717;28;20118;-76
2022/08/14 07:30:16;;;;;;;7.50;5.80;;;;;;;;;;5075518;28;20393;-76
2022/08/14 07:32:42;;;;;;;8.10;6.20;;;;;;;;;;5069228;28;20020;-82
2022/08/14 07:35:08;;;;;;;7.55;6.40;;;;;;;;;;5069187;28;20047;-75
2022/08/14 07:37:34;;;;;;;7.05;5.80;;;;;;;;;;5064487;28;20064;-76
2022/08/14 07:40:02;;;;;;;7.70;5.50;;;;;;;;;;5064906;28;20527;-81
2022/08/14 07:42:28;;;;;;;7.28;5.97;;;;;;;;;;5061530;28;20028;-82
2022/08/14 07:44:53;;;;;;;9.30;5.72;;;;;;;;;;5064527;28;20025;-75
2022/08/14 07:47:19;;;;;;;6.13;5.20;;;;;;;;;;5071384;28;20035;-81
2022/08/14 07:49:59;;;;;;;7.00;5.90;;;;;;;;;;5070218;28;20359;-76
2022/08/14 07:52:25;;;;;;;6.72;5.32;;;;;;;;;;5069754;28;20484;-76
2022/08/14 07:54:51;;;;;;;11.50;6.45;;;;;;;;;;5061694;28;20451;-80
2022/08/14 07:57:17;;;;;;;7.65;5.93;;;;;;;;;;5068466;28;20031;-76
2022/08/14 07:59:42;;;;;;;7.35;5.82;;;;;;;;;;5074136;28;20032;-76
2022/08/14 08:02:10;;;;;;;7.25;6.20;;;;;;;;;;5067742;28;20031;-76
2022/08/14 08:04:41;;;;;;;9.23;5.90;;;;;;;;;;5068934;28;20495;-76
2022/08/14 08:07:07;;;;;;;8.95;6.18;;;;;;;;;;5072459;28;20423;-76
2022/08/14 08:09:34;;;;;;;9.68;5.25;;;;;;;;;;5070554;28;20020;-76
2022/08/14 08:12:01;;;;;;;7.05;6.00;;;;;;;;;;5063522;28;20029;-76
2022/08/14 08:14:27;;;;;;;7.70;5.15;;;;;;;;;;5065768;28;20032;-77
2022/08/14 08:16:53;;;;;;;6.20;5.60;;;;;;;;;;5069463;28;20033;-77
2022/08/14 08:19:18;;;;;;;7.55;5.32;;;;;;;;;;5070652;28;20025;-76
2022/08/14 08:21:44;;;;;;;6.53;5.25;;;;;;;;;;5070365;28;20081;-75
2022/08/14 08:24:10;;;;;;;8.55;5.53;;;;;;;;;;5068753;28;20032;-75
2022/08/14 08:26:35;;;;;;;7.75;5.30;;;;;;;;;;5073452;28;20095;-77
2022/08/14 08:29:01;;;;;;;7.88;5.80;;;;;;;;;;5065857;28;20498;-81
2022/08/14 08:31:26;;;;;;;6.57;5.60;;;;;;;;;;5066302;28;20033;-73
2022/08/14 08:33:52;;;;;;;7.35;5.22;;;;;;;;;;5057429;28;20098;-75
2022/08/14 08:36:18;;;;;;;6.50;5.28;;;;;;;;;;5065271;28;20058;-77
2022/08/14 08:38:48;;;;;;;6.05;5.03;;;;;;;;;;5069009;28;20028;-77
2022/08/14 08:41:13;;;;;;;7.75;5.47;;;;;;;;;;5074672;28;20055;-78
2022/08/14 08:43:39;;;;;;;5.63;4.93;;;;;;;;;;5067652;28;20029;-73
2022/08/14 08:46:09;;;;;;;7.15;4.95;;;;;;;;;;5067826;28;20048;-80
2022/08/14 08:48:47;;;;;;;7.43;4.88;;;;;;;;;;5057605;28;22199;-74
2022/08/14 08:51:32;;;;;;;7.63;4.93;;;;;;;;;;5063713;28;20040;-75
2022/08/14 08:54:03;;;;;;;7.07;4.78;;;;;;;;;;5061297;28;20035;-82
2022/08/14 08:56:40;;;;;;;7.70;5.50;;;;;;;;;;5060006;28;20399;-77
2022/08/14 08:59:22;;;;;;;6.50;4.63;;;;;;;;;;5070884;28;20024;-81
2022/08/14 09:01:58;;;;;;;7.27;4.70;;;;;;;;;;5069835;28;20472;-73
2022/08/14 09:04:25;;;;;;;6.15;5.10;;;;;;;;;;5063635;28;20181;-82
2022/08/14 09:06:51;;;;;;;7.47;5.07;;;;;;;;;;5058904;28;20361;-81
2022/08/14 09:09:31;;;;;;;6.63;5.22;;;;;;;;;;5068076;28;20047;-74
2022/08/14 09:11:58;;;;;;;6.72;5.57;;;;;;;;;;5073652;28;20035;-76
2022/08/14 09:14:28;;;;;;;9.40;5.03;;;;;;;;;;5064391;28;20039;-77
2022/08/14 09:16:55;;;;;;;5.65;5.03;;;;;;;;;;5055913;28;20023;-75
2022/08/14 09:19:21;;;;;;;6.35;5.20;;;;;;;;;;5072161;28;20024;-75
2022/08/14 09:21:47;;;;;;;8.05;5.70;;;;;;;;;;5066267;28;20028;-74
2022/08/14 09:24:13;;;;;;;6.45;5.30;;;;;;;;;;5072429;28;20031;-78
2022/08/14 09:26:40;;;;;;;6.75;4.78;;;;;;;;;;5068496;28;20031;-75
2022/08/14 09:29:07;;;;;;;7.95;5.38;;;;;;;;;;5063872;28;20026;-82
2022/08/14 09:31:34;;;;;;;6.05;4.90;;;;;;;;;;5065191;28;20036;-77
2022/08/14 09:34:21;;;;;;;7.25;4.95;;;;;;;;;;5068913;28;20052;-74
2022/08/14 09:36:58;;;;;;;5.68;4.97;;;;;;;;;;5064113;28;20021;-78
2022/08/14 09:39:35;;;;;;;8.90;5.35;;;;;;;;;;5069011;28;20040;-75
2022/08/14 09:42:17;;;;;;;7.15;4.82;;;;;;;;;;5070763;28;20039;-79
2022/08/14 09:45:11;;;;;;;7.93;5.30;;;;;;;;;;5068783;28;20028;-79
2022/08/14 09:47:52;;;;;;;5.97;4.63;;;;;;;;;;5071342;28;20040;-74
2022/08/14 09:50:28;;;;;;;6.13;4.78;;;;;;;;;;5061541;28;20487;-79
2022/08/14 09:53:01;;;;;;;7.25;4.68;;;;;;;;;;5068909;28;20056;-75
2022/08/14 09:55:32;;;;;;;5.43;4.60;;;;;;;;;;5067588;28;20094;-76
2022/08/14 09:58:10;;;;;;;5.63;4.82;;;;;;;;;;5072414;28;20086;-82
2022/08/14 10:00:44;;;;;;;7.50;5.30;;;;;;;;;;5066932;28;20439;-75
2022/08/14 10:03:09;;;;;;;5.82;4.65;;;;;;;;;;5070178;28;20039;-79
2022/08/14 10:05:35;;;;;;;5.50;4.90;;;;;;;;;;5061667;28;20029;-75
2022/08/14 10:08:02;;;;;;;6.93;5.10;;;;;;;;;;5067058;28;20086;-74
2022/08/14 10:10:37;;;;;;;5.65;4.85;;;;;;;;;;5065289;28;20071;-74
2022/08/14 10:13:04;;;;;;;5.88;4.68;;;;;;;;;;5065045;28;20032;-76
2022/08/14 10:15:32;;;;;;;7.60;4.82;;;;;;;;;;5074284;28;20040;-78
2022/08/14 10:18:08;;;;;;;8.32;5.20;;;;;;;;;;5069214;28;20028;-76
2022/08/14 10:20:43;;;;;;;5.97;4.88;;;;;;;;;;5066415;28;20094;-77
2022/08/14 10:23:17;;;;;;;5.97;4.28;;;;;;;;;;5056741;28;20032;-79
2022/08/14 10:25:49;;;;;;;5.28;4.60;;;;;;;;;;5061957;28;20076;-77
2022/08/14 10:28:16;;;;;;;5.97;4.07;;;;;;;;;;5058731;28;20040;-76
2022/08/14 10:30:47;;;;;;;5.50;3.95;;;;;;;;;;5059016;28;20056;-77
2022/08/14 10:33:32;;;;;;;4.70;3.90;;;;;;;;;;5064311;28;20024;-81
2022/08/14 10:36:01;;;;;;;5.53;3.90;;;;;;;;;;5061275;28;20040;-75
2022/08/14 10:38:33;;;;;;;5.55;4.28;;;;;;;;;;5058499;28;20037;-75
2022/08/14 10:41:12;;;;;;;5.53;3.97;;;;;;;;;;5051652;28;20483;-74
2022/08/14 10:43:40;;;;;;;5.22;4.25;;;;;;;;;;5061537;28;20037;-75
2022/08/14 10:46:13;;;;;;;5.00;3.55;;;;;;;;;;5066707;28;20029;-76
2022/08/14 10:48:38;;;;;;;6.50;4.05;;;;;;;;;;5068151;28;20032;-75
2022/08/14 10:51:04;;;;;;;6.00;4.00;;;;;;;;;;5064900;28;20507;-78
2022/08/14 10:53:31;;;;;;;5.00;3.70;;;;;;;;;;5065997;28;20033;-80
2022/08/14 10:56:05;;;;;;;6.30;4.07;;;;;;;;;;5063882;28;20024;-85
2022/08/14 10:58:31;;;;;;;7.78;4.00;;;;;;;;;;5072894;28;20720;-74
2022/08/14 11:01:00;;;;;;;5.18;3.75;;;;;;;;;;5068153;28;20028;-75
2022/08/14 11:03:37;;;;;;;4.30;3.35;;;;;;;;;;5075183;28;20025;-79
2022/08/14 11:06:18;;;;;;;4.18;3.45;;;;;;;;;;5072297;28;20024;-76
2022/08/14 11:08:45;;;;;;;5.30;3.70;;;;;;;;;;5075081;28;20025;-78
2022/08/14 11:11:11;;;;;;;7.00;3.80;;;;;;;;;;5072375;28;20035;-82
2022/08/14 11:13:42;;;;;;;4.38;3.55;;;;;;;;;;5074773;28;20032;-76
2022/08/14 11:16:09;;;;;;;3.95;3.55;;;;;;;;;;5074019;28;20050;-82
2022/08/14 11:18:36;;;;;;;6.13;3.25;;;;;;;;;;5064959;28;20048;-76
2022/08/14 11:21:02;;;;;;;4.43;3.80;;;;;;;;;;5067282;28;20613;-77
2022/08/14 11:23:32;;;;;;;4.28;3.72;;;;;;;;;;5069519;28;20496;-79
2022/08/14 11:26:00;;;;;;;5.63;3.40;;;;;;;;;;5075718;28;20020;-80
2022/08/14 11:28:31;;;;;;;4.72;3.65;;;;;;;;;;5063768;28;20124;-77
2022/08/14 11:30:57;;;;;;;5.65;3.47;;;;;;;;;;5067993;28;20563;-79
2022/08/14 11:33:28;;;;;;;4.72;3.40;;;;;;;;;;5060443;28;20031;-79
2022/08/14 11:35:53;;;;;;;4.20;3.63;;;;;;;;;;5085625;28;20024;-75
2022/08/14 11:38:20;;;;;;;5.95;3.72;;;;;;;;;;5066782;28;20444;-79
2022/08/14 11:40:46;;;;;;;4.63;3.50;;;;;;;;;;5071073;28;20027;-81
2022/08/14 11:43:12;;;;;;;3.80;3.03;;;;;;;;;;5068656;28;20094;-74
2022/08/14 11:45:44;;;;;;;5.03;3.70;;;;;;;;;;5063729;28;20028;-77
2022/08/14 11:48:14;;;;;;;5.32;3.28;;;;;;;;;;5078348;28;20040;-78
2022/08/14 11:50:39;;;;;;;6.35;3.40;;;;;;;;;;5069971;28;20032;-78
2022/08/14 11:53:18;;;;;;;4.28;3.67;;;;;;;;;;5074929;28;20020;-75
2022/08/14 11:55:44;;;;;;;4.40;3.47;;;;;;;;;;5069883;28;20115;-82
2022/08/14 11:58:11;;;;;;;4.15;3.45;;;;;;;;;;5064750;28;20111;-77
2022/08/14 12:00:52;;;;;;;4.43;2.88;;;;;;;;;;5074659;28;20377;-79
2022/08/14 12:03:18;;;;;;;4.28;2.90;;;;;;;;;;5069267;28;20020;-75
2022/08/14 12:05:43;;;;;;;3.80;3.30;;;;;;;;;;5069370;28;20039;-79
2022/08/14 12:08:09;;;;;;;4.15;3.15;;;;;;;;;;5066141;28;20072;-82
2022/08/14 12:10:41;;;;;;;4.72;3.40;;;;;;;;;;5071766;28;20498;-82
2022/08/14 12:13:12;;;;;;;4.57;3.42;;;;;;;;;;5073170;28;20060;-78
2022/08/14 12:15:39;;;;;;;4.13;3.30;;;;;;;;;;5069053;28;20036;-78
2022/08/14 12:18:05;;;;;;;4.13;3.50;;;;;;;;;;5060636;28;20021;-79
2022/08/14 12:20:36;;;;;;;3.95;3.20;;;;;;;;;;5058318;28;20074;-79
2022/08/14 12:23:04;;;;;;;3.97;3.38;;;;;;;;;;5070530;28;20056;-81
2022/08/14 12:25:30;;;;;;;3.78;3.22;;;;;;;;;;5071618;28;20074;-77
2022/08/14 12:27:58;;;;;;;3.90;2.97;;;;;;;;;;5070149;28;20033;-82
2022/08/14 12:30:44;;;;;;;3.75;3.17;;;;;;;;;;5069868;28;20559;-81
2022/08/14 12:33:25;;;;;;;6.13;3.30;;;;;;;;;;5066533;28;20377;-81
2022/08/14 12:35:53;;;;;;;4.35;3.40;;;;;;;;;;5065255;28;20115;-77
2022/08/14 12:38:29;;;;;;;3.97;3.30;;;;;;;;;;5062220;28;20031;-79
2022/08/14 12:40:55;;;;;;;4.97;3.38;;;;;;;;;;5069668;28;20032;-78
2022/08/14 12:43:20;;;;;;;3.83;3.20;;;;;;;;;;5073998;28;20060;-78
2022/08/14 12:45:56;;;;;;;4.78;3.50;;;;;;;;;;5071994;28;20089;-75
2022/08/14 12:48:23;;;;;;;3.80;3.10;;;;;;;;;;5067162;28;20546;-78
2022/08/14 12:50:52;;;;;;;7.07;3.33;;;;;;;;;;5064732;28;20051;-81
2022/08/14 12:53:19;;;;;;;4.95;2.97;;;;;;;;;;5065902;28;20468;-81
2022/08/14 12:55:57;;;;;;;4.97;3.33;;;;;;;;;;5060894;28;20032;-82
2022/08/14 12:58:27;;;;;;;4.97;3.30;;;;;;;;;;5067347;28;20032;-76
2022/08/14 13:00:55;;;;;;;4.45;3.50;;;;;;;;;;5062776;28;20024;-79
2022/08/14 13:03:25;;;;;;;4.50;3.53;;;;;;;;;;5059834;28;20116;-77
2022/08/14 13:05:51;;;;;;;5.07;3.35;;;;;;;;;;5064231;28;20059;-77
2022/08/14 13:08:17;;;;;;;5.45;3.13;;;;;;;;;;5064088;28;20464;-81
2022/08/14 13:10:43;;;;;;;4.63;3.20;;;;;;;;;;5068267;28;20025;-80
2022/08/14 13:13:10;;;;;;;6.03;3.53;;;;;;;;;;5084833;28;20025;-82
2022/08/14 13:15:38;;;;;;;8.23;3.50;;;;;;;;;;5068296;28;20039;-77
2022/08/14 13:18:04;;;;;;;4.10;3.28;;;;;;;;;;5065308;28;20048;-76
2022/08/14 13:20:30;;;;;;;5.32;3.33;;;;;;;;;;5071077;28;20055;-77
2022/08/14 13:22:55;;;;;;;3.85;3.30;;;;;;;;;;5066936;28;20020;-76
2022/08/14 13:25:26;;;;;;;4.93;3.50;;;;;;;;;;5069349;28;20028;-76
2022/08/14 13:27:59;;;;;;;4.47;3.40;;;;;;;;;;5073514;28;20454;-79
2022/08/14 13:30:25;;;;;;;3.80;3.22;;;;;;;;;;5068250;28;20104;-76
2022/08/14 13:32:52;;;;;;;3.75;3.30;;;;;;;;;;5069492;28;20036;-81
2022/08/14 13:35:19;;;;;;;4.18;3.55;;;;;;;;;;5067447;28;20037;-75
2022/08/14 13:37:48;;;;;;;5.90;3.80;;;;;;;;;;5067450;28;20027;-78
2022/08/14 13:40:17;;;;;;;4.47;3.42;;;;;;;;;;5059617;28;20020;-82
2022/08/14 13:42:44;;;;;;;4.57;3.22;;;;;;;;;;5064164;28;20036;-81
2022/08/14 13:45:10;;;;;;;4.10;3.60;;;;;;;;;;5077110;28;20439;-79
2022/08/14 13:47:36;;;;;;;4.10;3.28;;;;;;;;;;5075143;28;20032;-75
2022/08/14 13:50:07;;;;;;;4.68;3.67;;;;;;;;;;5069678;28;20028;-79
2022/08/14 13:52:41;;;;;;;4.35;3.30;;;;;;;;;;5072560;28;20021;-79
2022/08/14 13:55:08;;;;;;;4.40;3.40;;;;;;;;;;5067020;28;20032;-80
2022/08/14 13:57:36;;;;;;;4.38;3.30;;;;;;;;;;5069893;28;20016;-80
2022/08/14 14:00:11;;;;;;;5.80;3.35;;;;;;;;;;5069815;28;20042;-79
2022/08/14 14:02:41;;;;;;;4.07;3.55;;;;;;;;;;5066596;28;20036;-76
2022/08/14 14:05:08;;;;;;;5.40;3.47;;;;;;;;;;5067213;28;20029;-77
2022/08/14 14:07:35;;;;;;;5.82;3.50;;;;;;;;;;5066216;28;20040;-75
2022/08/14 14:10:04;;;;;;;4.15;3.42;;;;;;;;;;5071581;28;20024;-83
2022/08/14 14:12:30;;;;;;;5.03;3.80;;;;;;;;;;5072571;28;20503;-77
2022/08/14 14:14:59;;;;;;;5.25;3.70;;;;;;;;;;5071351;28;20028;-76
2022/08/14 14:17:25;;;;;;;5.72;3.85;;;;;;;;;;5069922;28;20026;-76
2022/08/14 14:19:51;;;;;;;4.47;3.67;;;;;;;;;;5072287;28;20400;-78
2022/08/14 14:22:17;;;;;;;4.35;3.40;;;;;;;;;;5071509;28;20033;-84
2022/08/14 14:24:45;;;;;;;4.68;3.75;;;;;;;;;;5068133;28;20024;-76
2022/08/14 14:27:13;;;;;;;5.68;3.63;;;;;;;;;;5066307;28;20025;-76
2022/08/14 14:29:45;;;;;;;5.15;3.75;;;;;;;;;;5060000;28;20020;-76
2022/08/14 14:32:11;;;;;;;;;;;;;;;;;;5074002;28;20479;-79
2022/08/14 14:34:38;;;;;;;4.32;3.20;;;;;;;;;;5070060;28;19924;-78
2022/08/14 14:37:04;;;;;;;4.30;3.72;;;;;;;;;;5068786;28;20313;-83
2022/08/14 14:39:32;;;;;;;4.97;3.50;;;;;;;;;;5063514;28;20025;-82
2022/08/14 14:42:01;;;;;;;4.70;3.50;;;;;;;;;;5075781;28;20056;-82
2022/08/14 14:44:32;;;;;;;5.00;3.70;;;;;;;;;;5065800;28;20025;-83
2022/08/14 14:46:58;;;;;;;4.85;3.83;;;;;;;;;;5071271;28;20036;-77
2022/08/14 14:49:25;;;;;;;5.57;3.90;;;;;;;;;;5064738;28;20039;-78
2022/08/14 14:51:51;;;;;;;4.82;3.60;;;;;;;;;;5075479;28;20059;-81
2022/08/14 14:54:19;;;;;;;5.97;4.00;;;;;;;;;;5080836;28;20059;-77
2022/08/14 14:56:45;;;;;;;5.68;3.85;;;;;;;;;;5091036;28;20024;-83
2022/08/14 14:59:14;;;;;;;5.28;3.53;;;;;;;;;;5076702;28;20056;-82
2022/08/14 15:01:46;;;;;;;5.38;3.60;;;;;;;;;;5075860;28;20075;-82
2022/08/14 15:04:12;;;;;;;4.75;3.70;;;;;;;;;;5075806;28;20400;-77